sensor_id;sensor_type;location;lat;lon;timestamp;pressure;altitude;pressure_sealevel;temperature;humidity
52927;BME280;40783;49.710;8.842;2023-05-07T00:01:50;99031.06;;;14.71;100.00
52927;BME280;40783;49.710;8.842;2023-05-07T00:04:18;99037.09;;;14.73;100.00
52927;BME280;40783;49.710;8.842;2023-05-07T00:06:43;99038.00;;;14.80;100.00
52927;BME280;40783;49.710;8.842;2023-05-07T00:09:08;99038.06;;;14.87;100.00
52927;BME280;40783;49.710;8.842;2023-05-07T00:11:33;99037.22;;;14.86;100.00
52927;BME280;40783;49.710;8.842;2023-05-07T00:14:01;99044.00;;;14.67;100.00
52927;BME280;40783;49.710;8.842;2023-05-07T00:16:26;99044.22;;;14.50;100.00
52927;BME280;40783;49.710;8.842;2023-05-07T00:18:52;99044.31;;;14.57;100.00
52927;BME280;40783;49.710;8.842;2023-05-07T00:21:19;99050.34;;;14.59;100.00
52927;BME280;40783;49.710;8.842;2023-05-07T00:23:46;99040.22;;;14.61;100.00
52927;BME280;40783;49.710;8.842;2023-05-07T00:26:13;99026.56;;;14.63;100.00
52927;BME280;40783;49.710;8.842;2023-05-07T00:28:39;99040.41;;;14.45;100.00
52927;BME280;40783;49.710;8.842;2023-05-07T00:31:06;99037.28;;;14.26;100.00
52927;BME280;40783;49.710;8.842;2023-05-07T00:33:32;99033.66;;;14.19;100.00
52927;BME280;40783;49.710;8.842;2023-05-07T00:35:57;99033.72;;;14.25;100.00
52927;BME280;40783;49.710;8.842;2023-05-07T00:38:22;99034.19;;;14.14;100.00
52927;BME280;40783;49.710;8.842;2023-05-07T00:40:50;99036.41;;;14.25;100.00
52927;BME280;40783;49.710;8.842;2023-05-07T00:43:16;99041.06;;;14.17;100.00
52927;BME280;40783;49.710;8.842;2023-05-07T00:45:44;99044.03;;;14.22;100.00
52927;BME280;40783;49.710;8.842;2023-05-07T00:48:09;99036.69;;;14.16;100.00
52927;BME280;40783;49.710;8.842;2023-05-07T00:50:34;99036.13;;;14.05;100.00
52927;BME280;40783;49.710;8.842;2023-05-07T00:53:02;99038.16;;;14.03;100.00
52927;BME280;40783;49.710;8.842;2023-05-07T00:55:28;99032.44;;;14.06;100.00
52927;BME280;40783;49.710;8.842;2023-05-07T00:57:54;99028.34;;;14.10;100.00
52927;BME280;40783;49.710;8.842;2023-05-07T01:00:21;99033.06;;;14.08;100.00
52927;BME280;40783;49.710;8.842;2023-05-07T01:02:49;99035.69;;;14.17;100.00
52927;BME280;40783;49.710;8.842;2023-05-07T01:05:15;99019.91;;;14.14;100.00
52927;BME280;40783;49.710;8.842;2023-05-07T01:07:41;99027.50;;;14.10;100.00
52927;BME280;40783;49.710;8.842;2023-05-07T01:10:07;99020.38;;;14.02;100.00
52927;BME280;40783;49.710;8.842;2023-05-07T01:12:33;99014.25;;;14.08;100.00
52927;BME280;40783;49.710;8.842;2023-05-07T01:14:59;99017.59;;;14.10;100.00
52927;BME280;40783;49.710;8.842;2023-05-07T01:17:25;99022.78;;;14.12;100.00
52927;BME280;40783;49.710;8.842;2023-05-07T01:19:50;99022.69;;;14.05;100.00
52927;BME280;40783;49.710;8.842;2023-05-07T01:22:16;99023.63;;;14.13;100.00
52927;BME280;40783;49.710;8.842;2023-05-07T01:24:41;99022.88;;;14.04;100.00
52927;BME280;40783;49.710;8.842;2023-05-07T01:27:07;99023.72;;;14.04;100.00
52927;BME280;40783;49.710;8.842;2023-05-07T01:29:32;99022.13;;;14.10;100.00
52927;BME280;40783;49.710;8.842;2023-05-07T01:31:58;99007.22;;;14.07;100.00
52927;BME280;40783;49.710;8.842;2023-05-07T01:34:24;99003.28;;;13.95;100.00
52927;BME280;40783;49.710;8.842;2023-05-07T01:36:50;99004.59;;;13.99;100.00
52927;BME280;40783;49.710;8.842;2023-05-07T01:39:17;99010.72;;;13.93;100.00
52927;BME280;40783;49.710;8.842;2023-05-07T01:41:42;99010.34;;;13.96;100.00
52927;BME280;40783;49.710;8.842;2023-05-07T01:44:08;99000.25;;;13.98;100.00
52927;BME280;40783;49.710;8.842;2023-05-07T01:46:37;99007.94;;;14.01;100.00
52927;BME280;40783;49.710;8.842;2023-05-07T01:49:02;99005.97;;;13.95;100.00
52927;BME280;40783;49.710;8.842;2023-05-07T01:51:28;98995.78;;;13.90;100.00
52927;BME280;40783;49.710;8.842;2023-05-07T01:53:53;99006.06;;;13.87;100.00
52927;BME280;40783;49.710;8.842;2023-05-07T01:56:18;98999.00;;;13.86;100.00
52927;BME280;40783;49.710;8.842;2023-05-07T01:58:46;99000.31;;;13.90;100.00
52927;BME280;40783;49.710;8.842;2023-05-07T02:01:12;98982.88;;;13.86;100.00
52927;BME280;40783;49.710;8.842;2023-05-07T02:03:40;98999.56;;;13.66;100.00
52927;BME280;40783;49.710;8.842;2023-05-07T02:06:05;99000.75;;;13.63;100.00
52927;BME280;40783;49.710;8.842;2023-05-07T02:08:30;98997.81;;;13.73;100.00
52927;BME280;40783;49.710;8.842;2023-05-07T02:10:56;99007.91;;;13.71;100.00
52927;BME280;40783;49.710;8.842;2023-05-07T02:13:23;98998.25;;;13.62;100.00
52927;BME280;40783;49.710;8.842;2023-05-07T02:15:49;99005.50;;;13.76;100.00
52927;BME280;40783;49.710;8.842;2023-05-07T02:18:15;98999.00;;;13.86;100.00
52927;BME280;40783;49.710;8.842;2023-05-07T02:20:43;99003.94;;;13.97;100.00
52927;BME280;40783;49.710;8.842;2023-05-07T02:23:11;98999.97;;;13.93;100.00
52927;BME280;40783;49.710;8.842;2023-05-07T02:25:36;99010.34;;;13.96;100.00
52927;BME280;40783;49.710;8.842;2023-05-07T02:28:04;99001.25;;;13.97;100.00
52927;BME280;40783;49.710;8.842;2023-05-07T02:30:32;99004.03;;;13.89;100.00
52927;BME280;40783;49.710;8.842;2023-05-07T02:32:57;99007.53;;;13.74;100.00
52927;BME280;40783;49.710;8.842;2023-05-07T02:35:25;99005.47;;;13.61;100.00
52927;BME280;40783;49.710;8.842;2023-05-07T02:37:52;99002.03;;;13.53;100.00
52927;BME280;40783;49.710;8.842;2023-05-07T02:40:18;99015.53;;;13.36;100.00
52927;BME280;40783;49.710;8.842;2023-05-07T02:42:43;99011.84;;;13.37;100.00
52927;BME280;40783;49.710;8.842;2023-05-07T02:45:08;99016.41;;;13.36;100.00
52927;BME280;40783;49.710;8.842;2023-05-07T02:47:36;99011.34;;;13.42;100.00
52927;BME280;40783;49.710;8.842;2023-05-07T02:50:01;99010.44;;;13.49;100.00
52927;BME280;40783;49.710;8.842;2023-05-07T02:52:26;99007.84;;;13.56;100.00
52927;BME280;40783;49.710;8.842;2023-05-07T02:54:52;99013.78;;;13.52;100.00
52927;BME280;40783;49.710;8.842;2023-05-07T02:57:17;99006.84;;;13.57;100.00
52927;BME280;40783;49.710;8.842;2023-05-07T02:59:42;99003.97;;;13.59;100.00
52927;BME280;40783;49.710;8.842;2023-05-07T03:02:09;99009.94;;;13.69;100.00
52927;BME280;40783;49.710;8.842;2023-05-07T03:04:35;99013.88;;;13.58;100.00
52927;BME280;40783;49.710;8.842;2023-05-07T03:07:00;99015.09;;;13.56;100.00
52927;BME280;40783;49.710;8.842;2023-05-07T03:09:28;99009.41;;;13.50;100.00
52927;BME280;40783;49.710;8.842;2023-05-07T03:11:53;99007.69;;;13.58;100.00
52927;BME280;40783;49.710;8.842;2023-05-07T03:14:20;99008.41;;;13.52;100.00
52927;BME280;40783;49.710;8.842;2023-05-07T03:16:48;99007.28;;;13.46;100.00
52927;BME280;40783;49.710;8.842;2023-05-07T03:19:14;99002.56;;;13.48;100.00
52927;BME280;40783;49.710;8.842;2023-05-07T03:21:39;99007.69;;;13.34;100.00
52927;BME280;40783;49.710;8.842;2023-05-07T03:24:04;99009.88;;;13.31;100.00
52927;BME280;40783;49.710;8.842;2023-05-07T03:26:30;99006.97;;;13.41;100.00
52927;BME280;40783;49.710;8.842;2023-05-07T03:28:55;99011.47;;;13.40;100.00
52927;BME280;40783;49.710;8.842;2023-05-07T03:31:20;98999.69;;;13.49;100.00
52927;BME280;40783;49.710;8.842;2023-05-07T03:33:56;98997.66;;;13.52;100.00
52927;BME280;40783;49.710;8.842;2023-05-07T03:36:24;98992.66;;;13.48;100.00
52927;BME280;40783;49.710;8.842;2023-05-07T03:38:54;98990.69;;;13.42;100.00
52927;BME280;40783;49.710;8.842;2023-05-07T03:41:19;98983.13;;;13.46;100.00
52927;BME280;40783;49.710;8.842;2023-05-07T03:43:45;98985.25;;;13.50;100.00
52927;BME280;40783;49.710;8.842;2023-05-07T03:46:10;98986.19;;;13.58;100.00
52927;BME280;40783;49.710;8.842;2023-05-07T03:48:35;98980.59;;;13.44;100.00
52927;BME280;40783;49.710;8.842;2023-05-07T03:51:01;98990.69;;;13.42;100.00
52927;BME280;40783;49.710;8.842;2023-05-07T03:53:26;98979.94;;;13.42;100.00
52927;BME280;40783;49.710;8.842;2023-05-07T03:55:51;98984.03;;;13.30;100.00
52927;BME280;40783;49.710;8.842;2023-05-07T03:58:16;98993.84;;;13.23;100.00
52927;BME280;40783;49.710;8.842;2023-05-07T04:00:41;98995.13;;;13.27;100.00
52927;BME280;40783;49.710;8.842;2023-05-07T04:03:07;98982.97;;;13.39;100.00
52927;BME280;40783;49.710;8.842;2023-05-07T04:05:32;99000.72;;;13.48;100.00
52927;BME280;40783;49.710;8.842;2023-05-07T04:07:58;98996.66;;;13.53;100.00
52927;BME280;40783;49.710;8.842;2023-05-07T04:10:26;99000.28;;;13.60;100.00
52927;BME280;40783;49.710;8.842;2023-05-07T04:12:53;98997.59;;;13.60;100.00
52927;BME280;40783;49.710;8.842;2023-05-07T04:15:22;99008.03;;;13.55;100.00
52927;BME280;40783;49.710;8.842;2023-05-07T04:17:47;98999.41;;;13.44;100.00
52927;BME280;40783;49.710;8.842;2023-05-07T04:20:14;99012.25;;;13.26;100.00
52927;BME280;40783;49.710;8.842;2023-05-07T04:22:39;99009.06;;;13.07;100.00
52927;BME280;40783;49.710;8.842;2023-05-07T04:25:05;99016.50;;;13.20;100.00
52927;BME280;40783;49.710;8.842;2023-05-07T04:27:30;99011.44;;;13.25;100.00
52927;BME280;40783;49.710;8.842;2023-05-07T04:29:55;99013.56;;;13.30;100.00
52927;BME280;40783;49.710;8.842;2023-05-07T04:32:21;99017.56;;;13.34;100.00
52927;BME280;40783;49.710;8.842;2023-05-07T04:34:46;99024.41;;;13.21;100.00
52927;BME280;40783;49.710;8.842;2023-05-07T04:37:11;99016.84;;;13.17;100.00
52927;BME280;40783;49.710;8.842;2023-05-07T04:39:37;99011.72;;;13.07;100.00
52927;BME280;40783;49.710;8.842;2023-05-07T04:42:04;99013.41;;;13.08;100.00
52927;BME280;40783;49.710;8.842;2023-05-07T04:44:34;99018.41;;;13.11;100.00
52927;BME280;40783;49.710;8.842;2023-05-07T04:47:00;99016.13;;;13.00;100.00
52927;BME280;40783;49.710;8.842;2023-05-07T04:49:25;99017.25;;;13.05;100.00
52927;BME280;40783;49.710;8.842;2023-05-07T04:51:50;99017.06;;;13.15;100.00
52927;BME280;40783;49.710;8.842;2023-05-07T04:54:18;99024.44;;;13.13;100.00
52927;BME280;40783;49.710;8.842;2023-05-07T04:56:43;99019.25;;;13.35;100.00
52927;BME280;40783;49.710;8.842;2023-05-07T04:59:11;99028.28;;;13.42;100.00
52927;BME280;40783;49.710;8.842;2023-05-07T05:01:38;99028.59;;;13.47;100.00
52927;BME280;40783;49.710;8.842;2023-05-07T05:04:04;99024.16;;;13.55;100.00
52927;BME280;40783;49.710;8.842;2023-05-07T05:06:29;99027.31;;;13.58;100.00
52927;BME280;40783;49.710;8.842;2023-05-07T05:08:57;99027.50;;;13.57;100.00
52927;BME280;40783;49.710;8.842;2023-05-07T05:11:22;99025.13;;;13.62;100.00
52927;BME280;40783;49.710;8.842;2023-05-07T05:13:50;99035.25;;;13.75;100.00
52927;BME280;40783;49.710;8.842;2023-05-07T05:16:15;99034.63;;;13.88;100.00
52927;BME280;40783;49.710;8.842;2023-05-07T05:18:43;99036.22;;;13.97;100.00
52927;BME280;40783;49.710;8.842;2023-05-07T05:21:08;99046.53;;;14.08;100.00
52927;BME280;40783;49.710;8.842;2023-05-07T05:23:36;99046.16;;;14.12;100.00
52927;BME280;40783;49.710;8.842;2023-05-07T05:26:06;99045.94;;;13.98;100.00
52927;BME280;40783;49.710;8.842;2023-05-07T05:28:33;99040.66;;;14.05;100.00
52927;BME280;40783;49.710;8.842;2023-05-07T05:30:59;99037.59;;;14.08;100.00
52927;BME280;40783;49.710;8.842;2023-05-07T05:33:24;99045.50;;;14.09;100.00
52927;BME280;40783;49.710;8.842;2023-05-07T05:35:49;99043.03;;;14.23;100.00
52927;BME280;40783;49.710;8.842;2023-05-07T05:38:15;99035.59;;;14.25;100.00
52927;BME280;40783;49.710;8.842;2023-05-07T05:40:40;99044.84;;;14.37;100.00
52927;BME280;40783;49.710;8.842;2023-05-07T05:43:06;99046.44;;;14.47;100.00
52927;BME280;40783;49.710;8.842;2023-05-07T05:45:31;99043.38;;;14.50;100.00
52927;BME280;40783;49.710;8.842;2023-05-07T05:47:56;99050.44;;;14.51;100.00
52927;BME280;40783;49.710;8.842;2023-05-07T05:50:21;99047.63;;;14.59;100.00
52927;BME280;40783;49.710;8.842;2023-05-07T05:52:47;99045.59;;;14.61;100.00
52927;BME280;40783;49.710;8.842;2023-05-07T05:55:14;99036.78;;;14.67;100.00
52927;BME280;40783;49.710;8.842;2023-05-07T05:57:39;99047.84;;;14.73;100.00
52927;BME280;40783;49.710;8.842;2023-05-07T06:00:07;99043.38;;;14.80;100.00
52927;BME280;40783;49.710;8.842;2023-05-07T06:02:33;99041.34;;;14.82;100.00
52927;BME280;40783;49.710;8.842;2023-05-07T06:04:58;99044.91;;;14.89;100.00
52927;BME280;40783;49.710;8.842;2023-05-07T06:07:25;99046.09;;;15.02;100.00
52927;BME280;40783;49.710;8.842;2023-05-07T06:09:51;99055.59;;;14.97;100.00
52927;BME280;40783;49.710;8.842;2023-05-07T06:12:16;99048.91;;;14.93;100.00
52927;BME280;40783;49.710;8.842;2023-05-07T06:14:44;99049.81;;;15.01;100.00
52927;BME280;40783;49.710;8.842;2023-05-07T06:17:09;99046.38;;;15.07;100.00
52927;BME280;40783;49.710;8.842;2023-05-07T06:19:34;99043.56;;;15.15;100.00
52927;BME280;40783;49.710;8.842;2023-05-07T06:22:00;99047.28;;;15.14;100.00
52927;BME280;40783;49.710;8.842;2023-05-07T06:24:29;99048.47;;;15.26;100.00
52927;BME280;40783;49.710;8.842;2023-05-07T06:26:57;99053.53;;;15.36;100.00
52927;BME280;40783;49.710;8.842;2023-05-07T06:29:23;99055.41;;;15.36;100.00
52927;BME280;40783;49.710;8.842;2023-05-07T06:31:50;99059.34;;;15.40;100.00
52927;BME280;40783;49.710;8.842;2023-05-07T06:34:15;99057.28;;;15.42;100.00
52927;BME280;40783;49.710;8.842;2023-05-07T06:36:43;99056.16;;;15.51;100.00
52927;BME280;40783;49.710;8.842;2023-05-07T06:39:08;99051.66;;;15.58;100.00
52927;BME280;40783;49.710;8.842;2023-05-07T06:41:33;99054.59;;;15.64;99.34
52927;BME280;40783;49.710;8.842;2023-05-07T06:43:59;99058.59;;;15.68;100.00
52927;BME280;40783;49.710;8.842;2023-05-07T06:46:24;99061.41;;;15.81;97.75
52927;BME280;40783;49.710;8.842;2023-05-07T06:48:52;99057.56;;;15.69;99.17
52927;BME280;40783;49.710;8.842;2023-05-07T06:51:17;99061.66;;;15.65;100.00
52927;BME280;40783;49.710;8.842;2023-05-07T06:53:42;99060.00;;;15.64;100.00
52927;BME280;40783;49.710;8.842;2023-05-07T06:56:08;99063.34;;;15.66;98.75
52927;BME280;40783;49.710;8.842;2023-05-07T06:58:33;99068.34;;;15.69;99.69
52927;BME280;40783;49.710;8.842;2023-05-07T07:00:58;99070.00;;;15.70;98.38
52927;BME280;40783;49.710;8.842;2023-05-07T07:03:23;99066.94;;;15.73;98.01
52927;BME280;40783;49.710;8.842;2023-05-07T07:05:52;99058.25;;;15.78;99.27
52927;BME280;40783;49.710;8.842;2023-05-07T07:08:20;99063.06;;;15.82;96.57
52927;BME280;40783;49.710;8.842;2023-05-07T07:10:47;99059.91;;;15.79;97.45
52927;BME280;40783;49.710;8.842;2023-05-07T07:13:15;99053.22;;;15.90;98.58
52927;BME280;40783;49.710;8.842;2023-05-07T07:15:40;99049.16;;;16.07;97.46
52927;BME280;40783;49.710;8.842;2023-05-07T07:18:06;99055.84;;;16.11;96.08
52927;BME280;40783;49.710;8.842;2023-05-07T07:20:31;99060.47;;;16.24;94.55
52927;BME280;40783;49.710;8.842;2023-05-07T07:22:57;99063.09;;;16.39;93.62
52927;BME280;40783;49.710;8.842;2023-05-07T07:25:22;99059.41;;;16.54;93.40
52927;BME280;40783;49.710;8.842;2023-05-07T07:27:48;99069.81;;;16.57;90.68
52927;BME280;40783;49.710;8.842;2023-05-07T07:30:16;99072.75;;;16.62;90.02
52927;BME280;40783;49.710;8.842;2023-05-07T07:32:41;99067.91;;;16.51;89.62
52927;BME280;40783;49.710;8.842;2023-05-07T07:35:06;99065.22;;;16.51;94.53
52927;BME280;40783;49.710;8.842;2023-05-07T07:37:34;99062.13;;;16.54;91.55
52927;BME280;40783;49.710;8.842;2023-05-07T07:40:00;99064.03;;;16.60;89.79
52927;BME280;40783;49.710;8.842;2023-05-07T07:42:25;99067.81;;;16.72;90.21
52927;BME280;40783;49.710;8.842;2023-05-07T07:44:51;99060.34;;;16.74;90.69
52927;BME280;40783;49.710;8.842;2023-05-07T07:47:17;99060.34;;;16.74;91.66
52927;BME280;40783;49.710;8.842;2023-05-07T07:49:44;99060.38;;;16.81;91.07
52927;BME280;40783;49.710;8.842;2023-05-07T07:52:10;99071.47;;;16.93;90.00
52927;BME280;40783;49.710;8.842;2023-05-07T07:54:35;99065.81;;;16.88;88.71
52927;BME280;40783;49.710;8.842;2023-05-07T07:57:03;99076.78;;;16.80;89.57
52927;BME280;40783;49.710;8.842;2023-05-07T07:59:28;99070.19;;;16.89;90.88
52927;BME280;40783;49.710;8.842;2023-05-07T08:01:55;99067.72;;;16.94;91.06
52927;BME280;40783;49.710;8.842;2023-05-07T08:04:22;99080.03;;;17.03;89.46
52927;BME280;40783;49.710;8.842;2023-05-07T08:06:47;99083.19;;;17.14;90.70
52927;BME280;40783;49.710;8.842;2023-05-07T08:09:12;99094.59;;;17.09;89.80
52927;BME280;40783;49.710;8.842;2023-05-07T08:11:40;99089.16;;;17.02;91.19
52927;BME280;40783;49.710;8.842;2023-05-07T08:14:05;99089.19;;;17.09;93.79
52927;BME280;40783;49.710;8.842;2023-05-07T08:16:30;99087.31;;;17.10;93.37
52927;BME280;40783;49.710;8.842;2023-05-07T08:18:58;99085.41;;;17.03;93.01
52927;BME280;40783;49.710;8.842;2023-05-07T08:21:26;99094.09;;;16.92;93.01
52927;BME280;40783;49.710;8.842;2023-05-07T08:23:51;99090.81;;;16.97;92.54
52927;BME280;40783;49.710;8.842;2023-05-07T08:26:16;99099.56;;;16.99;92.93
52927;BME280;40783;49.710;8.842;2023-05-07T08:28:41;99089.97;;;16.96;91.95
52927;BME280;40783;49.710;8.842;2023-05-07T08:31:09;99089.16;;;17.02;92.38
52927;BME280;40783;49.710;8.842;2023-05-07T08:33:34;99094.78;;;17.08;91.05
52927;BME280;40783;49.710;8.842;2023-05-07T08:36:00;99089.44;;;17.21;90.86
52927;BME280;40783;49.710;8.842;2023-05-07T08:38:25;99085.94;;;17.27;91.68
52927;BME280;40783;49.710;8.842;2023-05-07T08:40:50;99097.19;;;17.38;89.67
52927;BME280;40783;49.710;8.842;2023-05-07T08:43:16;99096.56;;;17.49;89.74
52927;BME280;40783;49.710;8.842;2023-05-07T08:45:41;99095.16;;;17.67;87.00
52927;BME280;40783;49.710;8.842;2023-05-07T08:48:09;99095.16;;;17.67;85.30
52927;BME280;40783;49.710;8.842;2023-05-07T08:50:41;99098.50;;;17.82;87.34
52927;BME280;40783;49.710;8.842;2023-05-07T08:53:09;99095.59;;;17.97;86.59
52927;BME280;40783;49.710;8.842;2023-05-07T08:55:34;99093.91;;;17.83;86.01
52927;BME280;40783;49.710;8.842;2023-05-07T08:58:00;99092.66;;;17.72;86.90
52927;BME280;40783;49.710;8.842;2023-05-07T09:00:28;99092.69;;;17.99;88.85
52927;BME280;40783;49.710;8.842;2023-05-07T09:02:53;99098.31;;;18.04;87.64
52927;BME280;40783;49.710;8.842;2023-05-07T09:05:19;99102.28;;;18.21;86.34
52927;BME280;40783;49.710;8.842;2023-05-07T09:07:45;99098.53;;;18.02;84.73
52927;BME280;40783;49.710;8.842;2023-05-07T09:10:10;99098.94;;;18.06;84.67
52927;BME280;40783;49.710;8.842;2023-05-07T09:12:36;99096.88;;;18.15;84.82
52927;BME280;40783;49.710;8.842;2023-05-07T09:15:04;99094.78;;;18.17;84.99
52927;BME280;40783;49.710;8.842;2023-05-07T09:17:29;99081.84;;;18.39;86.20
52927;BME280;40783;49.710;8.842;2023-05-07T09:19:55;99095.53;;;18.58;84.00
52927;BME280;40783;49.710;8.842;2023-05-07T09:22:20;99082.63;;;18.60;84.38
52927;BME280;40783;49.710;8.842;2023-05-07T09:24:49;99085.06;;;18.81;86.48
52927;BME280;40783;49.710;8.842;2023-05-07T09:27:17;99081.69;;;18.93;82.64
52927;BME280;40783;49.710;8.842;2023-05-07T09:29:43;99089.53;;;19.15;82.89
52927;BME280;40783;49.710;8.842;2023-05-07T09:32:11;99092.78;;;19.30;79.02
52927;BME280;40783;49.710;8.842;2023-05-07T09:34:36;99100.94;;;19.30;79.11
52927;BME280;40783;49.710;8.842;2023-05-07T09:37:05;99098.94;;;19.51;80.10
52927;BME280;40783;49.710;8.842;2023-05-07T09:42:05;99086.75;;;19.67;77.96
52927;BME280;40783;49.710;8.842;2023-05-07T09:44:34;99097.19;;;19.63;79.50
52927;BME280;40783;49.710;8.842;2023-05-07T09:47:04;99088.44;;;19.93;76.26
52927;BME280;40783;49.710;8.842;2023-05-07T09:49:33;99087.41;;;19.94;77.44
52927;BME280;40783;49.710;8.842;2023-05-07T09:52:02;99086.94;;;19.97;81.33
52927;BME280;40783;49.710;8.842;2023-05-07T09:54:28;99081.25;;;20.06;76.36
52927;BME280;40783;49.710;8.842;2023-05-07T09:56:54;99085.63;;;20.07;76.89
52927;BME280;40783;49.710;8.842;2023-05-07T09:59:21;99074.16;;;20.05;74.66
52927;BME280;40783;49.710;8.842;2023-05-07T10:01:47;99060.88;;;20.15;76.68
52927;BME280;40783;49.710;8.842;2023-05-07T10:04:14;99056.38;;;20.27;75.20
52927;BME280;40783;49.710;8.842;2023-05-07T10:06:39;99057.84;;;20.30;74.15
52927;BME280;40783;49.710;8.842;2023-05-07T10:09:06;99060.50;;;20.11;75.79
52927;BME280;40783;49.710;8.842;2023-05-07T10:11:33;99067.84;;;20.29;76.88
52927;BME280;40783;49.710;8.842;2023-05-07T10:13:59;99056.53;;;20.33;75.35
52927;BME280;40783;49.710;8.842;2023-05-07T10:16:33;99053.38;;;20.36;74.45
52927;BME280;40783;49.710;8.842;2023-05-07T10:19:03;99057.31;;;20.40;73.81
52927;BME280;40783;49.710;8.842;2023-05-07T10:21:35;99050.91;;;20.53;75.01
52927;BME280;40783;49.710;8.842;2023-05-07T10:26:32;99049.34;;;20.64;73.04
52927;BME280;40783;49.710;8.842;2023-05-07T10:29:03;99059.75;;;20.48;72.72
52927;BME280;40783;49.710;8.842;2023-05-07T10:34:19;99060.88;;;20.59;70.83
52927;BME280;40783;49.710;8.842;2023-05-07T10:36:49;99060.19;;;20.82;72.10
52927;BME280;40783;49.710;8.842;2023-05-07T10:39:19;99063.81;;;20.95;69.14
52927;BME280;40783;49.710;8.842;2023-05-07T10:41:48;99055.81;;;21.00;70.97
52927;BME280;40783;49.710;8.842;2023-05-07T10:44:40;99055.91;;;21.24;68.48
52927;BME280;40783;49.710;8.842;2023-05-07T10:47:13;99054.25;;;21.23;67.25
52927;BME280;40783;49.710;8.842;2023-05-07T10:52:21;99058.00;;;21.22;69.66
52927;BME280;40783;49.710;8.842;2023-05-07T10:57:44;99050.47;;;21.24;63.98
52927;BME280;40783;49.710;8.842;2023-05-07T11:05:24;99042.91;;;21.26;66.26
52927;BME280;40783;49.710;8.842;2023-05-07T11:10:20;99044.38;;;21.40;65.17
52927;BME280;40783;49.710;8.842;2023-05-07T11:12:46;99039.47;;;21.61;69.57
52927;BME280;40783;49.710;8.842;2023-05-07T11:15:15;99035.16;;;21.41;65.59
52927;BME280;40783;49.710;8.842;2023-05-07T11:17:56;99038.94;;;21.40;62.73
52927;BME280;40783;49.710;8.842;2023-05-07T11:23:06;99036.63;;;21.56;61.19
52927;BME280;40783;49.710;8.842;2023-05-07T11:25:34;99036.94;;;21.47;61.79
52927;BME280;40783;49.710;8.842;2023-05-07T11:28:04;99022.16;;;21.43;61.64
52927;BME280;40783;49.710;8.842;2023-05-07T11:30:29;99016.00;;;21.48;63.15
52927;BME280;40783;49.710;8.842;2023-05-07T11:32:57;99024.38;;;21.65;61.63
52927;BME280;40783;49.710;8.842;2023-05-07T11:35:22;99026.31;;;21.58;59.06
52927;BME280;40783;49.710;8.842;2023-05-07T11:37:49;99030.72;;;21.59;59.27
52927;BME280;40783;49.710;8.842;2023-05-07T11:40:18;99025.94;;;21.42;61.58
52927;BME280;40783;49.710;8.842;2023-05-07T11:42:43;99019.38;;;21.62;60.32
52927;BME280;40783;49.710;8.842;2023-05-07T11:45:11;99021.78;;;21.70;58.62
52927;BME280;40783;49.710;8.842;2023-05-07T11:47:36;99024.97;;;21.79;57.80
52927;BME280;40783;49.710;8.842;2023-05-07T11:50:04;99019.41;;;21.86;59.92
52927;BME280;40783;49.710;8.842;2023-05-07T11:52:32;99018.13;;;21.88;58.47
52927;BME280;40783;49.710;8.842;2023-05-07T11:55:01;99013.84;;;21.92;57.30
52927;BME280;40783;49.710;8.842;2023-05-07T11:57:27;99016.31;;;21.94;56.96
52927;BME280;40783;49.710;8.842;2023-05-07T11:59:53;99005.69;;;22.04;56.18
52927;BME280;40783;49.710;8.842;2023-05-07T12:02:18;99012.66;;;22.12;56.39
52927;BME280;40783;49.710;8.842;2023-05-07T12:04:44;99007.09;;;22.19;55.18
52927;BME280;40783;49.710;8.842;2023-05-07T12:07:15;99010.16;;;22.22;53.89
52927;BME280;40783;49.710;8.842;2023-05-07T12:09:43;99009.22;;;22.17;54.36
52927;BME280;40783;49.710;8.842;2023-05-07T12:12:11;99003.31;;;22.20;55.93
52927;BME280;40783;49.710;8.842;2023-05-07T12:14:38;99006.16;;;22.25;56.93
52927;BME280;40783;49.710;8.842;2023-05-07T12:17:03;99004.13;;;22.20;55.71
52927;BME280;40783;49.710;8.842;2023-05-07T12:19:30;98997.28;;;22.18;55.17
52927;BME280;40783;49.710;8.842;2023-05-07T12:21:58;98999.25;;;22.22;55.99
52927;BME280;40783;49.710;8.842;2023-05-07T12:24:23;99000.91;;;22.35;55.41
52927;BME280;40783;49.710;8.842;2023-05-07T12:26:48;99002.56;;;22.36;55.64
52927;BME280;40783;49.710;8.842;2023-05-07T12:29:15;99009.66;;;22.37;54.39
52927;BME280;40783;49.710;8.842;2023-05-07T12:31:43;99005.88;;;22.38;56.09
52927;BME280;40783;49.710;8.842;2023-05-07T12:34:10;98998.53;;;22.27;56.73
52927;BME280;40783;49.710;8.842;2023-05-07T12:36:40;99004.50;;;22.24;55.51
52927;BME280;40783;49.710;8.842;2023-05-07T12:39:06;99008.03;;;22.24;57.10
52927;BME280;40783;49.710;8.842;2023-05-07T12:41:35;99002.47;;;22.19;56.93
52927;BME280;40783;49.710;8.842;2023-05-07T12:44:04;98999.03;;;22.24;58.06
52927;BME280;40783;49.710;8.842;2023-05-07T12:46:29;98998.81;;;22.14;57.74
52927;BME280;40783;49.710;8.842;2023-05-07T12:48:54;98992.75;;;22.23;56.95
52927;BME280;40783;49.710;8.842;2023-05-07T12:51:19;98990.97;;;22.29;57.39
52927;BME280;40783;49.710;8.842;2023-05-07T12:53:45;98993.22;;;22.44;57.71
52927;BME280;40783;49.710;8.842;2023-05-07T12:56:10;98994.50;;;22.53;56.42
52927;BME280;40783;49.710;8.842;2023-05-07T12:58:38;98995.22;;;22.49;57.43
52927;BME280;40783;49.710;8.842;2023-05-07T13:01:06;98994.25;;;22.55;57.69
52927;BME280;40783;49.710;8.842;2023-05-07T13:03:36;98989.03;;;22.65;58.28
52927;BME280;40783;49.710;8.842;2023-05-07T13:06:02;98996.88;;;22.50;57.89
52927;BME280;40783;49.710;8.842;2023-05-07T13:10:55;98992.13;;;22.33;57.70
52927;BME280;40783;49.710;8.842;2023-05-07T13:13:20;98984.44;;;22.42;59.46
52927;BME280;40783;49.710;8.842;2023-05-07T13:15:46;98987.84;;;22.61;59.54
52927;BME280;40783;49.710;8.842;2023-05-07T13:18:11;98981.22;;;22.57;60.39